Pagrindinis puslapis
METAR-TAF:

METAR-TAF

Oro uostai :

Masvingo, Zimbabvė

platuma: 20-04S, ilguma: 030-52E, Aukštis: 1094 m

Dabartinis oras

Ataskaita buvo paskelbta 8 valandos ir 11 minutes, ne 14:00 UTC
Vėjas 14 kt iš Rytų/Pietryčių
Temperatūra 31°C
Drėgmė 36%
Slėgis 1017 hPa
Matomumas 10 km arba daugiau
nėra debesų žemiau 1500 m ir nėra kamuolinių lietaus debesų

METAR: FVMV 271400Z 12014KT CAVOK 31/14 Q1017

Laikas: 00:11 (22:11 UTC)


TAF: trūkstamas

Orai ataskaitas ir orų prognozės (METAR, TAF).

turimą stotys yra geltonos ir raudonos taškus žemėlapyje.

Perkelti pele per norėdami pamatyti stoties vardą.

Tada spustelėkite, norėdami matyti oro stebėjimo ir prognozės.

Norėdami pakeisti žemėlapį: spustelėkite ant žalios mygtukų su juodo kryžiaus žemyn,; žalią mygtuką su brūkšneliu, jei norite nutolinti; arba žalių rodyklių gretimoms žemėlapius.


METAR-TAF: